createdAt,value
2023-02-14T00:01:20.649Z,78421.81
2023-02-14T00:03:49.557Z,78413.72
2023-02-14T00:06:17.161Z,78415.75
2023-02-14T00:08:45.026Z,78409.66
2023-02-14T00:11:13.329Z,78405.59
2023-02-14T00:14:01.984Z,78429.94
2023-02-14T00:16:29.383Z,78429.94
2023-02-14T00:19:06.014Z,78438.06
2023-02-14T00:21:38.908Z,78425.88
2023-02-14T00:24:12.125Z,78434.00
2023-02-14T00:26:39.348Z,78434.00
2023-02-14T00:29:10.682Z,78438.06
2023-02-14T00:31:38.873Z,78434.00
2023-02-14T00:34:07.238Z,78446.16
2023-02-14T00:36:34.462Z,78440.06
2023-02-14T00:39:07.041Z,78442.09
2023-02-14T00:41:34.624Z,78446.16
2023-02-14T00:44:02.505Z,78444.13
2023-02-14T00:46:29.977Z,78456.31
2023-02-14T00:48:57.533Z,78462.38
2023-02-14T00:51:24.916Z,78466.44
2023-02-14T00:53:52.672Z,78454.28
2023-02-14T00:56:20.743Z,78458.34
2023-02-14T00:58:48.401Z,78450.22
2023-02-14T01:01:18.760Z,78458.34
2023-02-14T01:03:46.410Z,78466.44
2023-02-14T01:06:13.354Z,78454.28
2023-02-14T01:08:40.668Z,78466.44
2023-02-14T01:11:10.295Z,78466.44
2023-02-14T01:13:37.463Z,78466.44
2023-02-14T01:16:10.540Z,78470.50
2023-02-14T01:18:37.529Z,78458.34
2023-02-14T01:21:20.389Z,78478.63
2023-02-14T01:23:51.078Z,78482.66
2023-02-14T01:26:20.443Z,78496.88
2023-02-14T01:28:48.036Z,78502.94
2023-02-14T01:31:18.957Z,78498.91
2023-02-14T01:33:47.640Z,78490.78
2023-02-14T01:36:32.855Z,78498.91
2023-02-14T01:39:02.724Z,78511.06
2023-02-14T01:41:33.497Z,78498.91
2023-02-14T01:44:06.577Z,78500.94
2023-02-14T01:46:36.268Z,78507.00
2023-02-14T01:49:10.778Z,78519.19
2023-02-14T01:51:42.873Z,78502.94
2023-02-14T01:54:11.459Z,78502.94
2023-02-14T01:56:43.668Z,78502.94
2023-02-14T01:59:17.380Z,78523.25
2023-02-14T02:01:45.986Z,78515.13
2023-02-14T02:04:18.465Z,78511.06
2023-02-14T02:06:53.585Z,78507.00
2023-02-14T02:09:43.319Z,78519.19
2023-02-14T02:12:10.720Z,78517.16
2023-02-14T02:14:38.032Z,78525.25
2023-02-14T02:17:23.522Z,78515.13
2023-02-14T02:20:24.531Z,78521.22
2023-02-14T02:23:29.470Z,78527.28
2023-02-14T02:26:24.027Z,78535.41
2023-02-14T02:29:20.581Z,78543.53
2023-02-14T02:32:02.419Z,78543.53
2023-02-14T02:34:32.575Z,78531.34
2023-02-14T02:37:03.833Z,78535.41
2023-02-14T02:39:58.823Z,78553.66
2023-02-14T02:42:44.938Z,78551.63
2023-02-14T02:45:28.783Z,78565.81
2023-02-14T02:48:16.640Z,78567.84
2023-02-14T02:51:08.108Z,78563.81
2023-02-14T02:53:40.968Z,78561.78
2023-02-14T02:56:39.991Z,78575.97
2023-02-14T02:59:18.476Z,78565.81
2023-02-14T03:02:22.637Z,78575.97
2023-02-14T03:04:55.822Z,78567.84
2023-02-14T03:07:35.034Z,78588.13
2023-02-14T03:10:16.384Z,78596.25
2023-02-14T03:13:12.032Z,78588.13
2023-02-14T03:15:43.544Z,78586.13
2023-02-14T03:18:48.298Z,78604.38
2023-02-14T03:21:29.206Z,78608.44
2023-02-14T03:24:19.655Z,78608.44
2023-02-14T03:26:57.926Z,78608.44
2023-02-14T03:29:42.993Z,78614.50
2023-02-14T03:32:38.632Z,78596.25
2023-02-14T03:35:20.824Z,78616.53
2023-02-14T03:38:29.440Z,78624.66
2023-02-14T03:41:23.924Z,78626.69
2023-02-14T03:43:59.043Z,78640.88
2023-02-14T03:46:31.182Z,78632.75
2023-02-14T03:49:01.861Z,78628.72
2023-02-14T03:51:34.403Z,78624.66
2023-02-14T03:54:04.954Z,78632.75
2023-02-14T03:56:40.910Z,78644.94
2023-02-14T03:59:16.665Z,78640.88
2023-02-14T04:01:51.915Z,78634.78
2023-02-14T04:04:22.565Z,78636.81
2023-02-14T04:06:50.143Z,78628.72
2023-02-14T04:09:17.062Z,78636.81
2023-02-14T04:11:46.363Z,78636.81
2023-02-14T04:14:13.558Z,78640.88
2023-02-14T04:16:59.582Z,78636.81
2023-02-14T04:19:26.803Z,78649.00
2023-02-14T04:21:54.077Z,78634.78
2023-02-14T04:24:21.092Z,78636.81
2023-02-14T04:26:54.308Z,78638.84
2023-02-14T04:29:21.504Z,78640.88
2023-02-14T04:31:49.145Z,78632.75
2023-02-14T04:34:16.115Z,78661.16
2023-02-14T04:36:43.293Z,78653.03
2023-02-14T04:39:10.358Z,78653.03
2023-02-14T04:41:37.575Z,78661.16
2023-02-14T04:44:04.562Z,78669.28
2023-02-14T04:46:31.843Z,78665.22
2023-02-14T04:48:59.349Z,78663.19
2023-02-14T04:51:27.632Z,78673.31
2023-02-14T04:53:54.682Z,78673.31
2023-02-14T04:56:21.950Z,78669.28
2023-02-14T04:58:48.882Z,78653.03
2023-02-14T05:01:16.188Z,78673.31
2023-02-14T05:03:43.083Z,78681.44
2023-02-14T05:06:10.413Z,78681.44
2023-02-14T05:08:37.430Z,78677.38
2023-02-14T05:11:05.160Z,78677.38
2023-02-14T05:13:32.350Z,78689.56
2023-02-14T05:15:59.602Z,78681.44
2023-02-14T05:18:27.294Z,78685.50
2023-02-14T05:20:54.804Z,78697.66
2023-02-14T05:23:22.339Z,78687.53
2023-02-14T05:25:51.134Z,78693.63
2023-02-14T05:28:19.620Z,78689.56
2023-02-14T05:30:47.306Z,78697.66
2023-02-14T05:33:14.333Z,78693.63
2023-02-14T05:35:41.601Z,78705.78
2023-02-14T05:38:08.587Z,78705.78
2023-02-14T05:40:35.858Z,78709.84
2023-02-14T05:43:02.846Z,78693.63
2023-02-14T05:45:30.219Z,78685.50
2023-02-14T05:47:57.297Z,78701.72
2023-02-14T05:50:24.587Z,78693.63
2023-02-14T05:52:54.360Z,78697.66
2023-02-14T05:55:22.051Z,78689.56
2023-02-14T05:57:49.046Z,78705.78
2023-02-14T06:00:16.709Z,78701.72
2023-02-14T06:02:43.913Z,78701.72
2023-02-14T06:05:11.628Z,78703.75
2023-02-14T06:07:38.878Z,78717.94
2023-02-14T06:10:09.884Z,78697.66
2023-02-14T06:12:36.887Z,78705.78
2023-02-14T06:15:04.562Z,78705.78
2023-02-14T06:17:31.479Z,78711.88
2023-02-14T06:19:58.908Z,78726.06
2023-02-14T06:22:26.084Z,78713.91
2023-02-14T06:24:53.422Z,78726.06
2023-02-14T06:27:20.404Z,78722.00
2023-02-14T06:29:47.751Z,78719.97
2023-02-14T06:32:14.971Z,78722.00
2023-02-14T06:34:42.778Z,78726.06
2023-02-14T06:37:10.058Z,78734.19
2023-02-14T06:39:37.429Z,78726.06
2023-02-14T06:42:04.443Z,78738.22
2023-02-14T06:44:31.783Z,78734.19
2023-02-14T06:46:58.798Z,78730.13
2023-02-14T06:49:26.228Z,78738.22
2023-02-14T06:51:53.212Z,78730.13
2023-02-14T06:54:20.374Z,78730.13
2023-02-14T06:56:47.339Z,78722.00
2023-02-14T06:59:14.623Z,78717.94
2023-02-14T07:01:41.629Z,78726.06
2023-02-14T07:04:09.378Z,78724.03
2023-02-14T07:06:37.578Z,78713.91
2023-02-14T07:09:05.749Z,78713.91
2023-02-14T07:11:32.894Z,78713.91
2023-02-14T07:14:00.104Z,78709.84
2023-02-14T07:16:27.035Z,78709.84
2023-02-14T07:18:54.297Z,78726.06
2023-02-14T07:21:21.277Z,78719.97
2023-02-14T07:23:50.116Z,78724.03
2023-02-14T07:26:18.333Z,78717.94
2023-02-14T07:28:48.820Z,78730.13
2023-02-14T07:31:17.107Z,78726.06
2023-02-14T07:33:44.444Z,78738.22
2023-02-14T07:36:11.479Z,78746.34
2023-02-14T07:38:38.812Z,78750.41
2023-02-14T07:41:05.812Z,78750.41
2023-02-14T07:43:34.498Z,78758.53
2023-02-14T07:46:02.857Z,78746.34
2023-02-14T07:48:32.504Z,78730.13
2023-02-14T07:51:01.426Z,78738.22
2023-02-14T07:53:29.100Z,78750.41
2023-02-14T07:55:57.034Z,78746.34
2023-02-14T07:58:24.445Z,78750.41
2023-02-14T08:00:51.551Z,78742.28
2023-02-14T08:03:18.933Z,78758.53
2023-02-14T08:05:57.192Z,78766.63
2023-02-14T08:08:26.894Z,78795.03
2023-02-14T08:10:53.885Z,78768.66
2023-02-14T08:13:21.724Z,78766.63
2023-02-14T08:16:07.586Z,78762.56
2023-02-14T08:18:38.575Z,78758.53
2023-02-14T08:21:08.578Z,78762.56
2023-02-14T08:23:36.488Z,78766.63
2023-02-14T08:26:03.955Z,78758.53
2023-02-14T08:28:33.172Z,78756.50
2023-02-14T08:31:01.624Z,78744.31
2023-02-14T08:33:29.266Z,78742.28
2023-02-14T08:35:56.431Z,78750.41
2023-02-14T08:38:24.627Z,78738.22
2023-02-14T08:40:51.871Z,78742.28
2023-02-14T08:43:19.265Z,78756.50
2023-02-14T08:45:48.491Z,78734.19
2023-02-14T08:48:15.802Z,78726.06
2023-02-14T08:50:42.972Z,78722.00
2023-02-14T08:53:12.659Z,78728.09
2023-02-14T08:55:40.601Z,78726.06
2023-02-14T08:58:42.037Z,78744.31
2023-02-14T09:01:15.158Z,78732.16
2023-02-14T09:03:43.330Z,78738.22
2023-02-14T09:06:14.644Z,78742.28
2023-02-14T09:08:42.352Z,78734.19
2023-02-14T09:11:19.646Z,78722.00
2023-02-14T09:13:48.284Z,78713.91
2023-02-14T09:16:17.637Z,78701.72
2023-02-14T09:18:46.221Z,78705.78
2023-02-14T09:21:17.595Z,78697.66
2023-02-14T09:28:05.504Z,78685.50
2023-02-14T09:38:46.630Z,78649.00
2023-02-14T09:42:53.878Z,78624.66
2023-02-14T09:45:27.310Z,78596.25
2023-02-14T09:48:01.057Z,78600.31
2023-02-14T09:50:47.483Z,78626.69
2023-02-14T09:53:27.452Z,78642.91
2023-02-14T09:56:20.703Z,78661.16
2023-02-14T09:58:54.562Z,78673.31
2023-02-14T10:01:34.480Z,78655.06
2023-02-14T10:04:29.666Z,78677.38
2023-02-14T10:07:24.849Z,78671.31
2023-02-14T10:10:22.761Z,78665.22
2023-02-14T10:12:56.439Z,78661.16
2023-02-14T10:15:38.008Z,78665.22
2023-02-14T10:18:15.106Z,78675.34
2023-02-14T10:20:47.315Z,78677.38
2023-02-14T10:23:21.264Z,78661.16
2023-02-14T10:26:04.447Z,78653.03
2023-02-14T10:28:35.400Z,78649.00
2023-02-14T10:31:12.917Z,78657.09
2023-02-14T10:33:45.643Z,78655.06
2023-02-14T10:36:27.553Z,78640.88
2023-02-14T10:39:09.165Z,78640.88
2023-02-14T10:42:03.763Z,78636.81
2023-02-14T10:44:50.474Z,78644.94
2023-02-14T10:47:33.266Z,78632.75
2023-02-14T10:50:44.719Z,78632.75
2023-02-14T10:53:13.111Z,78628.72
2023-02-14T10:55:56.024Z,78616.53
2023-02-14T10:58:27.967Z,78624.66
2023-02-14T11:01:15.841Z,78622.63
2023-02-14T11:04:03.894Z,78624.66
2023-02-14T11:06:31.899Z,78628.72
2023-02-14T11:08:59.195Z,78612.47
2023-02-14T11:11:43.662Z,78600.31
2023-02-14T11:14:27.590Z,78584.09
2023-02-14T11:16:56.914Z,78592.19
2023-02-14T11:19:26.120Z,78592.19
2023-02-14T11:21:56.669Z,78588.13
2023-02-14T11:24:33.733Z,78592.19
2023-02-14T11:27:14.840Z,78571.91
2023-02-14T11:29:42.244Z,78584.09
2023-02-14T11:32:16.456Z,78588.13
2023-02-14T11:34:54.937Z,78575.97
2023-02-14T11:37:26.771Z,78571.91
2023-02-14T11:39:57.593Z,78567.84
2023-02-14T11:42:37.586Z,78567.84
2023-02-14T11:45:06.918Z,78571.91
2023-02-14T11:47:41.711Z,78551.63
2023-02-14T11:50:24.891Z,78535.41
2023-02-14T11:52:57.290Z,78523.25
2023-02-14T11:55:28.423Z,78511.06
2023-02-14T11:57:57.988Z,78511.06
2023-02-14T12:00:27.421Z,78531.34
2023-02-14T12:02:56.455Z,78515.13
2023-02-14T12:05:49.460Z,78502.94
2023-02-14T12:08:25.264Z,78502.94
2023-02-14T12:11:18.203Z,78502.94
2023-02-14T12:14:21.383Z,78482.66
2023-02-14T12:17:14.870Z,78474.56
2023-02-14T12:20:14.457Z,78486.72
2023-02-14T12:22:50.392Z,78500.94
2023-02-14T12:25:22.887Z,78492.81
2023-02-14T12:28:07.983Z,78484.69
2023-02-14T12:30:39.650Z,78478.63
2023-02-14T12:33:22.995Z,78486.72
2023-02-14T12:36:09.425Z,78486.72
2023-02-14T12:39:08.641Z,78494.84
2023-02-14T12:41:52.796Z,78525.25
2023-02-14T12:44:57.705Z,78519.19
2023-02-14T12:47:54.873Z,78519.19
2023-02-14T12:50:30.447Z,78527.28
2023-02-14T12:53:14.212Z,78511.06
2023-02-14T12:55:52.886Z,78486.72
2023-02-14T12:58:39.359Z,78484.69
2023-02-14T13:01:28.421Z,78490.78
2023-02-14T13:04:27.207Z,78482.66
2023-02-14T13:07:28.136Z,78482.66
2023-02-14T13:10:03.290Z,78484.69
2023-02-14T13:13:02.503Z,78470.50
2023-02-14T13:16:07.882Z,78470.50
2023-02-14T13:18:59.638Z,78472.53
2023-02-14T13:21:31.901Z,78494.84
2023-02-14T13:24:15.668Z,78498.91
2023-02-14T13:26:49.002Z,78494.84
2023-02-14T13:29:26.502Z,78480.66
2023-02-14T13:32:01.779Z,78482.66
2023-02-14T13:34:42.001Z,78480.66
2023-02-14T13:37:14.755Z,78482.66
2023-02-14T13:40:04.124Z,78482.66
2023-02-14T13:42:47.660Z,78474.56
2023-02-14T13:45:34.930Z,78462.38
2023-02-14T13:48:16.010Z,78474.56
2023-02-14T13:50:56.373Z,78474.56
2023-02-14T13:53:47.945Z,78458.34
2023-02-14T13:56:17.636Z,78442.09
2023-02-14T13:58:54.274Z,78442.09
2023-02-14T14:01:42.104Z,78425.88
2023-02-14T14:04:30.490Z,78425.88
2023-02-14T14:07:00.212Z,78417.78
2023-02-14T14:09:54.744Z,78434.00
2023-02-14T14:12:43.128Z,78462.38
2023-02-14T14:15:15.250Z,78482.66
2023-02-14T14:17:47.299Z,78490.78
2023-02-14T14:20:20.915Z,78490.78
2023-02-14T14:22:50.586Z,78498.91
2023-02-14T14:25:39.886Z,78498.91
2023-02-14T14:28:21.261Z,78494.84
2023-02-14T14:30:49.045Z,78490.78
2023-02-14T14:33:28.679Z,78494.84
2023-02-14T14:36:10.669Z,78486.72
2023-02-14T14:38:50.816Z,78482.66
2023-02-14T14:41:18.988Z,78488.75
2023-02-14T14:43:47.593Z,78490.78
2023-02-14T14:46:16.353Z,78492.81
2023-02-14T14:48:50.187Z,78494.84
2023-02-14T14:51:30.577Z,78494.84
2023-02-14T14:54:07.754Z,78498.91
2023-02-14T14:56:45.289Z,78507.00
2023-02-14T14:59:28.031Z,78507.00
2023-02-14T15:01:56.345Z,78502.94
2023-02-14T15:04:35.461Z,78507.00
2023-02-14T15:07:31.248Z,78509.03
2023-02-14T15:09:58.790Z,78502.94
2023-02-14T15:12:45.787Z,78511.06
2023-02-14T15:15:16.879Z,78515.13
2023-02-14T15:17:44.404Z,78517.16
2023-02-14T15:20:19.006Z,78523.25
2023-02-14T15:22:49.790Z,78533.38
2023-02-14T15:25:29.268Z,78531.34
2023-02-14T15:27:57.270Z,78531.34
2023-02-14T15:30:38.697Z,78531.34
2023-02-14T15:33:09.947Z,78531.34
2023-02-14T15:35:42.501Z,78543.53
2023-02-14T15:38:12.860Z,78535.41
2023-02-14T15:40:42.893Z,78543.53
2023-02-14T15:43:16.959Z,78547.56
2023-02-14T15:45:51.983Z,78531.34
2023-02-14T15:48:28.358Z,78547.56
2023-02-14T15:50:59.181Z,78547.56
2023-02-14T15:53:50.474Z,78547.56
2023-02-14T15:56:25.178Z,78551.63
2023-02-14T15:59:20.717Z,78557.72
2023-02-14T16:02:24.406Z,78551.63
2023-02-14T16:04:52.067Z,78559.75
2023-02-14T16:07:29.752Z,78567.84
2023-02-14T16:10:24.212Z,78569.88
2023-02-14T16:13:09.291Z,78557.72
2023-02-14T16:15:38.851Z,78555.69
2023-02-14T16:18:18.899Z,78563.81
2023-02-14T16:20:51.446Z,78575.97
2023-02-14T16:23:25.966Z,78571.91
2023-02-14T16:25:54.417Z,78567.84
2023-02-14T16:28:22.358Z,78565.81
2023-02-14T16:30:55.710Z,78567.84
2023-02-14T16:33:29.097Z,78584.09
2023-02-14T16:36:22.261Z,78580.03
2023-02-14T16:38:50.763Z,78588.13
2023-02-14T16:41:21.482Z,78592.19
2023-02-14T16:43:49.130Z,78592.19
2023-02-14T16:46:22.252Z,78584.09
2023-02-14T16:48:53.105Z,78596.25
2023-02-14T16:51:23.667Z,78600.31
2023-02-14T16:53:51.233Z,78600.31
2023-02-14T16:56:44.569Z,78588.13
2023-02-14T16:59:13.010Z,78596.25
2023-02-14T17:01:41.476Z,78598.28
2023-02-14T17:04:09.645Z,78604.38
2023-02-14T17:06:41.916Z,78612.47
2023-02-14T17:09:11.652Z,78620.59
2023-02-14T17:11:47.108Z,78624.66
2023-02-14T17:14:21.065Z,78630.72
2023-02-14T17:16:52.843Z,78630.72
2023-02-14T17:19:20.548Z,78630.72
2023-02-14T17:21:50.280Z,78640.88
2023-02-14T17:24:19.660Z,78644.94
2023-02-14T17:26:49.570Z,78644.94
2023-02-14T17:29:17.966Z,78649.00
2023-02-14T17:31:46.328Z,78651.03
2023-02-14T17:34:13.878Z,78653.03
2023-02-14T17:36:41.763Z,78657.09
2023-02-14T17:39:09.545Z,78665.22
2023-02-14T17:41:38.104Z,78675.34
2023-02-14T17:44:08.229Z,78669.28
2023-02-14T17:46:35.890Z,78673.31
2023-02-14T17:49:04.151Z,78677.38
2023-02-14T17:51:31.753Z,78681.44
2023-02-14T17:54:01.300Z,78677.38
2023-02-14T17:56:29.434Z,78669.28
2023-02-14T17:58:56.725Z,78677.38
2023-02-14T18:01:27.240Z,78673.31
2023-02-14T18:03:56.294Z,78673.31
2023-02-14T18:06:27.008Z,78685.50
2023-02-14T18:08:58.357Z,78685.50
2023-02-14T18:11:28.275Z,78709.84
2023-02-14T18:13:57.199Z,78713.91
2023-02-14T18:16:26.292Z,78705.78
2023-02-14T18:18:55.142Z,78722.00
2023-02-14T18:21:24.717Z,78717.94
2023-02-14T18:23:53.069Z,78722.00
2023-02-14T18:26:20.863Z,78726.06
2023-02-14T18:28:48.996Z,78738.22
2023-02-14T18:31:19.040Z,78750.41
2023-02-14T18:33:48.354Z,78738.22
2023-02-14T18:36:19.258Z,78742.28
2023-02-14T18:38:49.258Z,78752.44
2023-02-14T18:41:19.744Z,78750.41
2023-02-14T18:43:49.311Z,78758.53
2023-02-14T18:46:23.652Z,78774.75
2023-02-14T18:48:51.628Z,78774.75
2023-02-14T18:51:25.992Z,78778.81
2023-02-14T18:53:54.922Z,78770.69
2023-02-14T18:56:27.225Z,78780.84
2023-02-14T18:59:01.426Z,78782.84
2023-02-14T19:01:33.011Z,78782.84
2023-02-14T19:04:01.851Z,78790.97
2023-02-14T19:06:32.119Z,78795.03
2023-02-14T19:09:03.124Z,78803.16
2023-02-14T19:11:33.389Z,78795.03
2023-02-14T19:14:02.429Z,78809.22
2023-02-14T19:16:34.053Z,78815.31
2023-02-14T19:19:02.910Z,78815.31
2023-02-14T19:21:37.714Z,78815.31
2023-02-14T19:24:07.492Z,78813.28
2023-02-14T19:26:40.912Z,78823.44
2023-02-14T19:29:12.342Z,78819.38
2023-02-14T19:31:44.603Z,78811.25
2023-02-14T19:34:19.885Z,78811.25
2023-02-14T19:36:49.077Z,78811.25
2023-02-14T19:39:17.417Z,78819.38
2023-02-14T19:41:46.303Z,78819.38
2023-02-14T19:44:15.716Z,78811.25
2023-02-14T19:46:45.296Z,78803.16
2023-02-14T19:49:15.027Z,78803.16
2023-02-14T19:51:43.935Z,78807.19
2023-02-14T19:54:12.648Z,78811.25
2023-02-14T19:56:44.756Z,78825.47
2023-02-14T19:59:20.223Z,78827.47
2023-02-14T20:01:51.835Z,78825.47
2023-02-14T20:04:29.291Z,78823.44
2023-02-14T20:06:57.533Z,78831.53
2023-02-14T20:09:25.713Z,78827.47
2023-02-14T20:11:58.476Z,78819.38
2023-02-14T20:14:43.656Z,78811.25
2023-02-14T20:17:18.110Z,78817.34
2023-02-14T20:19:45.325Z,78831.53
2023-02-14T20:22:12.733Z,78831.53
2023-02-14T20:24:40.024Z,78835.59
2023-02-14T20:27:08.270Z,78827.47
2023-02-14T20:29:38.943Z,78831.53
2023-02-14T20:32:07.537Z,78827.47
2023-02-14T20:34:34.541Z,78835.59
2023-02-14T20:37:02.732Z,78845.75
2023-02-14T20:39:34.640Z,78855.88
2023-02-14T20:42:02.038Z,78859.94
2023-02-14T20:44:29.970Z,78859.94
2023-02-14T20:46:57.687Z,78851.81
2023-02-14T20:49:26.344Z,78859.94
2023-02-14T20:51:53.994Z,78859.94
2023-02-14T20:54:24.090Z,78872.09
2023-02-14T20:56:52.910Z,78876.16
2023-02-14T20:59:27.527Z,78876.16
2023-02-14T21:01:56.349Z,78874.13
2023-02-14T21:04:23.729Z,78878.19
2023-02-14T21:06:51.408Z,78884.28
2023-02-14T21:09:20.891Z,78886.31
2023-02-14T21:11:48.558Z,78892.41
2023-02-14T21:14:17.451Z,78888.34
2023-02-14T21:16:45.133Z,78880.22
2023-02-14T21:19:13.306Z,78904.56
2023-02-14T21:21:42.044Z,78886.31
2023-02-14T21:24:12.453Z,78890.38
2023-02-14T21:26:42.115Z,78900.50
2023-02-14T21:29:10.769Z,78896.44
2023-02-14T21:31:40.104Z,78896.44
2023-02-14T21:34:07.570Z,78892.41
2023-02-14T21:36:36.827Z,78884.28
2023-02-14T21:39:06.541Z,78880.22
2023-02-14T21:41:35.257Z,78872.09
2023-02-14T21:44:04.535Z,78876.16
2023-02-14T21:46:37.185Z,78868.06
2023-02-14T21:49:24.857Z,78864.00
2023-02-14T21:51:53.367Z,78847.78
2023-02-14T21:54:21.459Z,78847.78
2023-02-14T21:56:49.965Z,78843.72
2023-02-14T21:59:17.765Z,78847.78
2023-02-14T22:01:45.394Z,78843.72
2023-02-14T22:04:13.165Z,78831.53
2023-02-14T22:06:42.917Z,78823.44
2023-02-14T22:09:13.406Z,78831.53
2023-02-14T22:11:40.983Z,78819.38
2023-02-14T22:14:08.401Z,78819.38
2023-02-14T22:16:39.913Z,78811.25
2023-02-14T22:19:08.929Z,78803.16
2023-02-14T22:21:36.589Z,78803.16
2023-02-14T22:24:05.300Z,78811.25
2023-02-14T22:26:40.842Z,78790.97
2023-02-14T22:29:11.960Z,78790.97
2023-02-14T22:31:42.908Z,78803.16
2023-02-14T22:34:13.748Z,78790.97
2023-02-14T22:36:42.670Z,78786.91
2023-02-14T22:39:13.349Z,78778.81
2023-02-14T22:41:43.171Z,78772.72
2023-02-14T22:44:10.537Z,78774.75
2023-02-14T22:46:38.551Z,78786.91
2023-02-14T22:49:07.012Z,78774.75
2023-02-14T22:51:41.189Z,78774.75
2023-02-14T22:54:14.146Z,78770.69
2023-02-14T22:56:45.620Z,78770.69
2023-02-14T22:59:16.861Z,78770.69
2023-02-14T23:01:44.894Z,78770.69
2023-02-14T23:04:13.468Z,78782.84
2023-02-14T23:06:42.059Z,78782.84
2023-02-14T23:09:11.806Z,78778.81
2023-02-14T23:11:43.329Z,78778.81
2023-02-14T23:14:53.795Z,78776.78
2023-02-14T23:17:39.887Z,78778.81
2023-02-14T23:20:27.355Z,78770.69
2023-02-14T23:22:55.644Z,78772.72
2023-02-14T23:25:23.453Z,78774.75
2023-02-14T23:27:51.958Z,78774.75
2023-02-14T23:30:19.924Z,78770.69
2023-02-14T23:32:48.578Z,78770.69
2023-02-14T23:35:16.270Z,78766.63
2023-02-14T23:37:44.029Z,78758.53
2023-02-14T23:40:12.002Z,78762.56
2023-02-14T23:42:40.017Z,78764.59
2023-02-14T23:45:26.817Z,78762.56
2023-02-14T23:47:54.554Z,78758.53
2023-02-14T23:50:22.910Z,78768.66
2023-02-14T23:52:50.636Z,78766.63
2023-02-14T23:55:18.344Z,78750.41
2023-02-14T23:57:46.263Z,78762.56
